sensor_id;sensor_type;location;lat;lon;timestamp;P1;durP1;ratioP1;P2;durP2;ratioP2
4726;SDS011;2377;51.734;8.950;2022-09-09T00:01:46;4.67;;;1.70;;
4726;SDS011;2377;51.734;8.950;2022-09-09T00:04:26;4.27;;;1.23;;
4726;SDS011;2377;51.734;8.950;2022-09-09T00:06:59;2.30;;;1.17;;
4726;SDS011;2377;51.734;8.950;2022-09-09T00:09:35;3.17;;;1.20;;
4726;SDS011;2377;51.734;8.950;2022-09-09T00:12:15;4.37;;;1.30;;
4726;SDS011;2377;51.734;8.950;2022-09-09T00:14:54;3.50;;;1.30;;
4726;SDS011;2377;51.734;8.950;2022-09-09T00:17:31;2.37;;;1.20;;
4726;SDS011;2377;51.734;8.950;2022-09-09T00:20:06;3.10;;;1.20;;
4726;SDS011;2377;51.734;8.950;2022-09-09T00:22:45;3.40;;;0.97;;
4726;SDS011;2377;51.734;8.950;2022-09-09T00:25:28;2.60;;;1.00;;
4726;SDS011;2377;51.734;8.950;2022-09-09T00:28:04;3.43;;;1.20;;
4726;SDS011;2377;51.734;8.950;2022-09-09T00:30:44;5.80;;;1.30;;
4726;SDS011;2377;51.734;8.950;2022-09-09T00:33:15;4.27;;;1.10;;
4726;SDS011;2377;51.734;8.950;2022-09-09T00:35:47;4.30;;;1.40;;
4726;SDS011;2377;51.734;8.950;2022-09-09T00:38:20;2.50;;;1.20;;
4726;SDS011;2377;51.734;8.950;2022-09-09T00:40:56;4.47;;;1.40;;
4726;SDS011;2377;51.734;8.950;2022-09-09T00:43:35;2.57;;;1.07;;
4726;SDS011;2377;51.734;8.950;2022-09-09T00:49:15;4.63;;;1.27;;
4726;SDS011;2377;51.734;8.950;2022-09-09T00:51:59;4.63;;;1.40;;
4726;SDS011;2377;51.734;8.950;2022-09-09T00:54:47;2.73;;;1.20;;
4726;SDS011;2377;51.734;8.950;2022-09-09T00:57:31;3.13;;;1.20;;
4726;SDS011;2377;51.734;8.950;2022-09-09T01:00:15;2.53;;;1.27;;
4726;SDS011;2377;51.734;8.950;2022-09-09T01:02:52;12.87;;;2.10;;
4726;SDS011;2377;51.734;8.950;2022-09-09T01:05:41;3.90;;;1.40;;
4726;SDS011;2377;51.734;8.950;2022-09-09T01:08:20;4.70;;;1.90;;
4726;SDS011;2377;51.734;8.950;2022-09-09T01:11:12;3.43;;;1.60;;
4726;SDS011;2377;51.734;8.950;2022-09-09T01:13:49;2.97;;;1.60;;
4726;SDS011;2377;51.734;8.950;2022-09-09T01:16:26;3.00;;;1.40;;
4726;SDS011;2377;51.734;8.950;2022-09-09T01:18:57;3.83;;;1.40;;
4726;SDS011;2377;51.734;8.950;2022-09-09T01:21:30;2.83;;;1.13;;
4726;SDS011;2377;51.734;8.950;2022-09-09T01:24:15;4.20;;;1.30;;
4726;SDS011;2377;51.734;8.950;2022-09-09T01:26:54;8.13;;;1.80;;
4726;SDS011;2377;51.734;8.950;2022-09-09T01:29:25;4.67;;;1.63;;
4726;SDS011;2377;51.734;8.950;2022-09-09T01:31:54;3.20;;;1.47;;
4726;SDS011;2377;51.734;8.950;2022-09-09T01:34:25;3.77;;;1.30;;
4726;SDS011;2377;51.734;8.950;2022-09-09T01:36:57;3.67;;;1.43;;
4726;SDS011;2377;51.734;8.950;2022-09-09T01:39:30;4.00;;;1.27;;
4726;SDS011;2377;51.734;8.950;2022-09-09T01:42:02;5.30;;;1.27;;
4726;SDS011;2377;51.734;8.950;2022-09-09T01:44:32;4.20;;;1.40;;
4726;SDS011;2377;51.734;8.950;2022-09-09T01:47:03;4.97;;;1.43;;
4726;SDS011;2377;51.734;8.950;2022-09-09T01:49:32;5.20;;;1.60;;
4726;SDS011;2377;51.734;8.950;2022-09-09T01:51:59;2.20;;;1.13;;
4726;SDS011;2377;51.734;8.950;2022-09-09T01:54:28;5.47;;;1.83;;
4726;SDS011;2377;51.734;8.950;2022-09-09T01:57:01;3.50;;;1.03;;
4726;SDS011;2377;51.734;8.950;2022-09-09T01:59:45;4.40;;;1.40;;
4726;SDS011;2377;51.734;8.950;2022-09-09T02:02:24;6.10;;;1.50;;
4726;SDS011;2377;51.734;8.950;2022-09-09T02:05:01;2.77;;;1.20;;
4726;SDS011;2377;51.734;8.950;2022-09-09T02:07:44;6.83;;;1.40;;
4726;SDS011;2377;51.734;8.950;2022-09-09T02:10:17;3.40;;;1.30;;
4726;SDS011;2377;51.734;8.950;2022-09-09T02:12:53;2.53;;;1.20;;
4726;SDS011;2377;51.734;8.950;2022-09-09T02:15:31;2.60;;;1.40;;
4726;SDS011;2377;51.734;8.950;2022-09-09T02:18:06;3.20;;;1.53;;
4726;SDS011;2377;51.734;8.950;2022-09-09T02:20:38;4.03;;;1.40;;
4726;SDS011;2377;51.734;8.950;2022-09-09T02:23:07;3.20;;;1.60;;
4726;SDS011;2377;51.734;8.950;2022-09-09T02:25:37;2.77;;;1.27;;
4726;SDS011;2377;51.734;8.950;2022-09-09T02:28:10;3.03;;;1.50;;
4726;SDS011;2377;51.734;8.950;2022-09-09T02:30:42;4.40;;;1.27;;
4726;SDS011;2377;51.734;8.950;2022-09-09T02:33:13;3.20;;;1.30;;
4726;SDS011;2377;51.734;8.950;2022-09-09T02:35:41;3.47;;;1.60;;
4726;SDS011;2377;51.734;8.950;2022-09-09T02:38:12;5.03;;;1.80;;
4726;SDS011;2377;51.734;8.950;2022-09-09T02:40:42;2.43;;;1.20;;
4726;SDS011;2377;51.734;8.950;2022-09-09T02:43:12;2.63;;;1.37;;
4726;SDS011;2377;51.734;8.950;2022-09-09T02:45:44;2.17;;;1.17;;
4726;SDS011;2377;51.734;8.950;2022-09-09T02:48:26;2.87;;;1.60;;
4726;SDS011;2377;51.734;8.950;2022-09-09T02:51:05;4.90;;;1.60;;
4726;SDS011;2377;51.734;8.950;2022-09-09T02:53:46;3.60;;;1.27;;
4726;SDS011;2377;51.734;8.950;2022-09-09T02:56:25;4.00;;;1.60;;
4726;SDS011;2377;51.734;8.950;2022-09-09T02:59:02;4.03;;;1.53;;
4726;SDS011;2377;51.734;8.950;2022-09-09T03:01:30;2.80;;;1.47;;
4726;SDS011;2377;51.734;8.950;2022-09-09T03:03:58;3.20;;;1.20;;
4726;SDS011;2377;51.734;8.950;2022-09-09T03:06:25;2.70;;;1.30;;
4726;SDS011;2377;51.734;8.950;2022-09-09T03:08:53;3.30;;;1.40;;
4726;SDS011;2377;51.734;8.950;2022-09-09T03:11:20;2.70;;;1.30;;
4726;SDS011;2377;51.734;8.950;2022-09-09T03:13:47;3.10;;;1.40;;
4726;SDS011;2377;51.734;8.950;2022-09-09T03:16:16;2.50;;;1.50;;
4726;SDS011;2377;51.734;8.950;2022-09-09T03:18:43;3.47;;;1.40;;
4726;SDS011;2377;51.734;8.950;2022-09-09T03:21:11;3.20;;;1.23;;
4726;SDS011;2377;51.734;8.950;2022-09-09T03:23:38;5.10;;;1.63;;
4726;SDS011;2377;51.734;8.950;2022-09-09T03:26:06;3.80;;;1.20;;
4726;SDS011;2377;51.734;8.950;2022-09-09T03:28:34;5.00;;;1.73;;
4726;SDS011;2377;51.734;8.950;2022-09-09T03:31:01;2.63;;;1.60;;
4726;SDS011;2377;51.734;8.950;2022-09-09T03:33:34;4.47;;;1.57;;
4726;SDS011;2377;51.734;8.950;2022-09-09T03:36:01;6.37;;;1.70;;
4726;SDS011;2377;51.734;8.950;2022-09-09T03:38:30;2.87;;;1.20;;
4726;SDS011;2377;51.734;8.950;2022-09-09T03:40:58;2.03;;;1.20;;
4726;SDS011;2377;51.734;8.950;2022-09-09T03:43:27;2.53;;;1.30;;
4726;SDS011;2377;51.734;8.950;2022-09-09T03:45:55;3.53;;;1.30;;
4726;SDS011;2377;51.734;8.950;2022-09-09T03:48:23;4.20;;;1.63;;
4726;SDS011;2377;51.734;8.950;2022-09-09T03:50:53;3.03;;;1.40;;
4726;SDS011;2377;51.734;8.950;2022-09-09T03:53:23;5.40;;;1.60;;
4726;SDS011;2377;51.734;8.950;2022-09-09T03:55:53;4.67;;;1.57;;
4726;SDS011;2377;51.734;8.950;2022-09-09T03:58:24;2.93;;;1.60;;
4726;SDS011;2377;51.734;8.950;2022-09-09T04:00:53;4.60;;;1.60;;
4726;SDS011;2377;51.734;8.950;2022-09-09T04:03:21;3.50;;;1.30;;
4726;SDS011;2377;51.734;8.950;2022-09-09T04:05:50;3.87;;;1.60;;
4726;SDS011;2377;51.734;8.950;2022-09-09T04:08:20;2.50;;;1.07;;
4726;SDS011;2377;51.734;8.950;2022-09-09T04:10:50;3.60;;;1.20;;
4726;SDS011;2377;51.734;8.950;2022-09-09T04:13:19;2.73;;;1.10;;
4726;SDS011;2377;51.734;8.950;2022-09-09T04:15:50;3.70;;;1.33;;
4726;SDS011;2377;51.734;8.950;2022-09-09T04:18:18;4.50;;;1.40;;
4726;SDS011;2377;51.734;8.950;2022-09-09T04:20:46;3.20;;;1.40;;
4726;SDS011;2377;51.734;8.950;2022-09-09T04:23:16;3.20;;;1.40;;
4726;SDS011;2377;51.734;8.950;2022-09-09T04:25:45;4.53;;;1.70;;
4726;SDS011;2377;51.734;8.950;2022-09-09T04:28:13;4.20;;;1.50;;
4726;SDS011;2377;51.734;8.950;2022-09-09T04:30:41;2.70;;;1.37;;
4726;SDS011;2377;51.734;8.950;2022-09-09T04:33:09;2.50;;;1.30;;
4726;SDS011;2377;51.734;8.950;2022-09-09T04:35:38;8.97;;;1.77;;
4726;SDS011;2377;51.734;8.950;2022-09-09T04:38:09;6.20;;;1.63;;
4726;SDS011;2377;51.734;8.950;2022-09-09T04:40:38;2.83;;;1.30;;
4726;SDS011;2377;51.734;8.950;2022-09-09T04:43:08;3.70;;;1.70;;
4726;SDS011;2377;51.734;8.950;2022-09-09T04:45:35;7.37;;;2.00;;
4726;SDS011;2377;51.734;8.950;2022-09-09T04:48:02;5.40;;;1.67;;
4726;SDS011;2377;51.734;8.950;2022-09-09T04:50:30;5.83;;;1.70;;
4726;SDS011;2377;51.734;8.950;2022-09-09T04:52:59;3.67;;;1.67;;
4726;SDS011;2377;51.734;8.950;2022-09-09T04:55:27;5.83;;;1.73;;
4726;SDS011;2377;51.734;8.950;2022-09-09T04:57:56;3.63;;;1.57;;
4726;SDS011;2377;51.734;8.950;2022-09-09T05:00:24;4.53;;;1.43;;
4726;SDS011;2377;51.734;8.950;2022-09-09T05:02:51;4.37;;;1.80;;
4726;SDS011;2377;51.734;8.950;2022-09-09T05:05:18;3.07;;;1.57;;
4726;SDS011;2377;51.734;8.950;2022-09-09T05:07:45;2.90;;;1.50;;
4726;SDS011;2377;51.734;8.950;2022-09-09T05:10:13;4.87;;;1.87;;
4726;SDS011;2377;51.734;8.950;2022-09-09T05:12:41;4.30;;;1.70;;
4726;SDS011;2377;51.734;8.950;2022-09-09T05:15:10;3.93;;;1.50;;
4726;SDS011;2377;51.734;8.950;2022-09-09T05:17:37;4.20;;;1.60;;
4726;SDS011;2377;51.734;8.950;2022-09-09T05:20:05;5.20;;;1.87;;
4726;SDS011;2377;51.734;8.950;2022-09-09T05:22:32;4.27;;;1.70;;
4726;SDS011;2377;51.734;8.950;2022-09-09T05:24:59;4.17;;;1.87;;
4726;SDS011;2377;51.734;8.950;2022-09-09T05:27:26;2.53;;;1.30;;
4726;SDS011;2377;51.734;8.950;2022-09-09T05:29:56;3.37;;;1.53;;
4726;SDS011;2377;51.734;8.950;2022-09-09T05:32:25;8.23;;;1.80;;
4726;SDS011;2377;51.734;8.950;2022-09-09T05:34:52;5.53;;;1.70;;
4726;SDS011;2377;51.734;8.950;2022-09-09T05:37:19;3.20;;;1.40;;
4726;SDS011;2377;51.734;8.950;2022-09-09T05:39:48;4.77;;;2.50;;
4726;SDS011;2377;51.734;8.950;2022-09-09T05:42:18;6.93;;;1.70;;
4726;SDS011;2377;51.734;8.950;2022-09-09T05:44:45;4.40;;;1.80;;
4726;SDS011;2377;51.734;8.950;2022-09-09T05:47:12;4.17;;;2.13;;
4726;SDS011;2377;51.734;8.950;2022-09-09T05:49:41;4.00;;;1.70;;
4726;SDS011;2377;51.734;8.950;2022-09-09T05:52:09;3.57;;;2.00;;
4726;SDS011;2377;51.734;8.950;2022-09-09T05:54:36;6.93;;;1.90;;
4726;SDS011;2377;51.734;8.950;2022-09-09T05:57:04;3.80;;;1.60;;
4726;SDS011;2377;51.734;8.950;2022-09-09T05:59:31;3.33;;;1.50;;
4726;SDS011;2377;51.734;8.950;2022-09-09T06:01:58;2.70;;;1.70;;
4726;SDS011;2377;51.734;8.950;2022-09-09T06:04:25;5.00;;;1.60;;
4726;SDS011;2377;51.734;8.950;2022-09-09T06:06:53;2.77;;;1.70;;
4726;SDS011;2377;51.734;8.950;2022-09-09T06:09:20;2.00;;;1.30;;
4726;SDS011;2377;51.734;8.950;2022-09-09T06:11:47;3.30;;;1.50;;
4726;SDS011;2377;51.734;8.950;2022-09-09T06:14:15;3.63;;;1.70;;
4726;SDS011;2377;51.734;8.950;2022-09-09T06:16:43;5.07;;;1.50;;
4726;SDS011;2377;51.734;8.950;2022-09-09T06:19:10;5.53;;;1.83;;
4726;SDS011;2377;51.734;8.950;2022-09-09T06:21:37;3.10;;;1.50;;
4726;SDS011;2377;51.734;8.950;2022-09-09T06:24:06;3.93;;;1.73;;
4726;SDS011;2377;51.734;8.950;2022-09-09T06:26:34;3.00;;;1.43;;
4726;SDS011;2377;51.734;8.950;2022-09-09T06:29:06;2.87;;;1.80;;
4726;SDS011;2377;51.734;8.950;2022-09-09T06:31:34;4.53;;;1.53;;
4726;SDS011;2377;51.734;8.950;2022-09-09T06:34:04;3.97;;;1.30;;
4726;SDS011;2377;51.734;8.950;2022-09-09T06:36:34;2.93;;;1.30;;
4726;SDS011;2377;51.734;8.950;2022-09-09T06:39:03;4.33;;;1.53;;
4726;SDS011;2377;51.734;8.950;2022-09-09T06:41:32;3.13;;;1.43;;
4726;SDS011;2377;51.734;8.950;2022-09-09T06:44:00;4.70;;;1.50;;
4726;SDS011;2377;51.734;8.950;2022-09-09T06:46:29;5.00;;;1.77;;
4726;SDS011;2377;51.734;8.950;2022-09-09T06:48:58;5.50;;;1.70;;
4726;SDS011;2377;51.734;8.950;2022-09-09T06:51:28;5.20;;;1.40;;
4726;SDS011;2377;51.734;8.950;2022-09-09T06:53:58;9.93;;;1.63;;
4726;SDS011;2377;51.734;8.950;2022-09-09T06:56:28;6.53;;;1.80;;
4726;SDS011;2377;51.734;8.950;2022-09-09T06:59:00;2.97;;;1.60;;
4726;SDS011;2377;51.734;8.950;2022-09-09T07:01:30;4.10;;;1.87;;
4726;SDS011;2377;51.734;8.950;2022-09-09T07:04:00;4.93;;;1.77;;
4726;SDS011;2377;51.734;8.950;2022-09-09T07:06:32;4.17;;;1.50;;
4726;SDS011;2377;51.734;8.950;2022-09-09T07:09:03;3.57;;;1.60;;
4726;SDS011;2377;51.734;8.950;2022-09-09T07:11:34;4.10;;;1.80;;
4726;SDS011;2377;51.734;8.950;2022-09-09T07:14:07;11.00;;;2.03;;
4726;SDS011;2377;51.734;8.950;2022-09-09T07:16:37;6.33;;;2.17;;
4726;SDS011;2377;51.734;8.950;2022-09-09T07:19:05;5.10;;;1.87;;
4726;SDS011;2377;51.734;8.950;2022-09-09T07:21:32;4.83;;;1.90;;
4726;SDS011;2377;51.734;8.950;2022-09-09T07:24:00;5.03;;;2.03;;
4726;SDS011;2377;51.734;8.950;2022-09-09T07:26:30;7.00;;;1.90;;
4726;SDS011;2377;51.734;8.950;2022-09-09T07:28:57;5.90;;;2.00;;
4726;SDS011;2377;51.734;8.950;2022-09-09T07:31:26;4.50;;;1.80;;
4726;SDS011;2377;51.734;8.950;2022-09-09T07:33:55;5.10;;;1.83;;
4726;SDS011;2377;51.734;8.950;2022-09-09T07:36:25;11.40;;;3.00;;
4726;SDS011;2377;51.734;8.950;2022-09-09T07:38:55;14.90;;;2.57;;
4726;SDS011;2377;51.734;8.950;2022-09-09T07:41:25;3.50;;;1.93;;
4726;SDS011;2377;51.734;8.950;2022-09-09T07:43:55;7.00;;;2.10;;
4726;SDS011;2377;51.734;8.950;2022-09-09T07:46:24;7.30;;;2.00;;
4726;SDS011;2377;51.734;8.950;2022-09-09T07:48:54;8.60;;;2.37;;
4726;SDS011;2377;51.734;8.950;2022-09-09T07:51:24;4.70;;;2.13;;
4726;SDS011;2377;51.734;8.950;2022-09-09T07:53:54;8.23;;;1.60;;
4726;SDS011;2377;51.734;8.950;2022-09-09T07:56:25;5.93;;;1.90;;
4726;SDS011;2377;51.734;8.950;2022-09-09T07:58:54;6.00;;;2.23;;
4726;SDS011;2377;51.734;8.950;2022-09-09T08:01:24;7.23;;;2.07;;
4726;SDS011;2377;51.734;8.950;2022-09-09T08:03:56;4.93;;;1.90;;
4726;SDS011;2377;51.734;8.950;2022-09-09T08:06:30;6.17;;;2.17;;
4726;SDS011;2377;51.734;8.950;2022-09-09T08:09:00;5.73;;;1.70;;
4726;SDS011;2377;51.734;8.950;2022-09-09T08:11:28;6.37;;;2.40;;
4726;SDS011;2377;51.734;8.950;2022-09-09T08:13:58;7.53;;;2.10;;
4726;SDS011;2377;51.734;8.950;2022-09-09T08:16:27;5.63;;;2.00;;
4726;SDS011;2377;51.734;8.950;2022-09-09T08:18:57;4.77;;;2.20;;
4726;SDS011;2377;51.734;8.950;2022-09-09T08:21:25;5.50;;;2.23;;
4726;SDS011;2377;51.734;8.950;2022-09-09T08:23:57;4.07;;;2.10;;
4726;SDS011;2377;51.734;8.950;2022-09-09T08:26:26;5.83;;;2.17;;
4726;SDS011;2377;51.734;8.950;2022-09-09T08:28:56;11.80;;;2.63;;
4726;SDS011;2377;51.734;8.950;2022-09-09T08:31:27;5.60;;;2.10;;
4726;SDS011;2377;51.734;8.950;2022-09-09T08:33:57;7.93;;;2.60;;
4726;SDS011;2377;51.734;8.950;2022-09-09T08:36:26;6.70;;;1.83;;
4726;SDS011;2377;51.734;8.950;2022-09-09T08:38:56;7.20;;;2.30;;
4726;SDS011;2377;51.734;8.950;2022-09-09T08:41:30;4.83;;;1.93;;
4726;SDS011;2377;51.734;8.950;2022-09-09T08:44:14;7.10;;;1.77;;
4726;SDS011;2377;51.734;8.950;2022-09-09T08:46:59;4.00;;;1.60;;
4726;SDS011;2377;51.734;8.950;2022-09-09T08:49:48;5.23;;;1.90;;
4726;SDS011;2377;51.734;8.950;2022-09-09T08:52:38;4.60;;;1.90;;
4726;SDS011;2377;51.734;8.950;2022-09-09T08:55:18;3.23;;;1.53;;
4726;SDS011;2377;51.734;8.950;2022-09-09T08:57:54;5.27;;;1.97;;
4726;SDS011;2377;51.734;8.950;2022-09-09T09:00:28;4.10;;;1.83;;
4726;SDS011;2377;51.734;8.950;2022-09-09T09:03:13;4.63;;;1.73;;
4726;SDS011;2377;51.734;8.950;2022-09-09T09:06:00;6.10;;;2.00;;
4726;SDS011;2377;51.734;8.950;2022-09-09T09:08:39;3.97;;;1.60;;
4726;SDS011;2377;51.734;8.950;2022-09-09T09:11:16;8.53;;;2.53;;
4726;SDS011;2377;51.734;8.950;2022-09-09T09:13:44;6.60;;;2.27;;
4726;SDS011;2377;51.734;8.950;2022-09-09T09:16:22;5.37;;;2.00;;
4726;SDS011;2377;51.734;8.950;2022-09-09T09:18:59;6.30;;;1.70;;
4726;SDS011;2377;51.734;8.950;2022-09-09T09:21:29;4.03;;;1.90;;
4726;SDS011;2377;51.734;8.950;2022-09-09T09:24:06;8.03;;;2.07;;
4726;SDS011;2377;51.734;8.950;2022-09-09T09:26:44;6.70;;;1.53;;
4726;SDS011;2377;51.734;8.950;2022-09-09T09:29:12;4.30;;;1.80;;
4726;SDS011;2377;51.734;8.950;2022-09-09T09:31:43;5.47;;;1.83;;
4726;SDS011;2377;51.734;8.950;2022-09-09T09:34:18;6.67;;;1.90;;
4726;SDS011;2377;51.734;8.950;2022-09-09T09:36:46;3.93;;;1.40;;
4726;SDS011;2377;51.734;8.950;2022-09-09T09:39:25;5.03;;;1.70;;
4726;SDS011;2377;51.734;8.950;2022-09-09T09:41:54;6.77;;;1.90;;
4726;SDS011;2377;51.734;8.950;2022-09-09T09:44:23;7.43;;;1.60;;
4726;SDS011;2377;51.734;8.950;2022-09-09T09:46:53;5.27;;;1.70;;
4726;SDS011;2377;51.734;8.950;2022-09-09T09:49:34;5.87;;;1.57;;
4726;SDS011;2377;51.734;8.950;2022-09-09T09:52:02;5.63;;;1.60;;
4726;SDS011;2377;51.734;8.950;2022-09-09T09:54:31;4.50;;;1.73;;
4726;SDS011;2377;51.734;8.950;2022-09-09T09:57:08;4.70;;;1.63;;
4726;SDS011;2377;51.734;8.950;2022-09-09T09:59:37;7.83;;;1.90;;
4726;SDS011;2377;51.734;8.950;2022-09-09T10:02:15;5.10;;;1.50;;
4726;SDS011;2377;51.734;8.950;2022-09-09T10:05:01;6.43;;;1.40;;
4726;SDS011;2377;51.734;8.950;2022-09-09T10:07:32;6.03;;;1.73;;
4726;SDS011;2377;51.734;8.950;2022-09-09T10:10:02;5.50;;;1.40;;
4726;SDS011;2377;51.734;8.950;2022-09-09T10:12:35;4.03;;;1.60;;
4726;SDS011;2377;51.734;8.950;2022-09-09T10:15:24;6.77;;;1.43;;
4726;SDS011;2377;51.734;8.950;2022-09-09T10:18:18;7.83;;;1.90;;
4726;SDS011;2377;51.734;8.950;2022-09-09T10:21:09;4.50;;;1.43;;
4726;SDS011;2377;51.734;8.950;2022-09-09T10:24:02;8.40;;;1.63;;
4726;SDS011;2377;51.734;8.950;2022-09-09T10:26:53;5.13;;;1.43;;
4726;SDS011;2377;51.734;8.950;2022-09-09T10:29:35;4.57;;;1.30;;
4726;SDS011;2377;51.734;8.950;2022-09-09T10:32:30;5.93;;;1.50;;
4726;SDS011;2377;51.734;8.950;2022-09-09T10:35:10;4.43;;;1.40;;
4726;SDS011;2377;51.734;8.950;2022-09-09T10:37:58;5.53;;;1.47;;
4726;SDS011;2377;51.734;8.950;2022-09-09T10:40:46;8.57;;;1.53;;
4726;SDS011;2377;51.734;8.950;2022-09-09T10:50:28;4.77;;;1.70;;
4726;SDS011;2377;51.734;8.950;2022-09-09T10:53:20;6.77;;;1.80;;
4726;SDS011;2377;51.734;8.950;2022-09-09T10:56:04;5.33;;;1.40;;
4726;SDS011;2377;51.734;8.950;2022-09-09T10:58:38;7.80;;;1.40;;
4726;SDS011;2377;51.734;8.950;2022-09-09T11:01:15;5.13;;;1.30;;
4726;SDS011;2377;51.734;8.950;2022-09-09T11:03:52;3.37;;;1.23;;
4726;SDS011;2377;51.734;8.950;2022-09-09T11:06:26;4.10;;;1.23;;
4726;SDS011;2377;51.734;8.950;2022-09-09T11:09:03;4.13;;;1.60;;
4726;SDS011;2377;51.734;8.950;2022-09-09T11:11:33;6.33;;;1.47;;
4726;SDS011;2377;51.734;8.950;2022-09-09T11:14:09;4.57;;;1.50;;
4726;SDS011;2377;51.734;8.950;2022-09-09T11:16:46;3.80;;;1.50;;
4726;SDS011;2377;51.734;8.950;2022-09-09T11:19:19;3.33;;;1.30;;
4726;SDS011;2377;51.734;8.950;2022-09-09T11:21:53;3.97;;;1.40;;
4726;SDS011;2377;51.734;8.950;2022-09-09T11:24:27;5.17;;;1.20;;
4726;SDS011;2377;51.734;8.950;2022-09-09T11:27:02;2.80;;;1.13;;
4726;SDS011;2377;51.734;8.950;2022-09-09T11:29:47;6.13;;;1.33;;
4726;SDS011;2377;51.734;8.950;2022-09-09T11:36:10;4.50;;;1.50;;
4726;SDS011;2377;51.734;8.950;2022-09-09T11:39:05;4.07;;;1.43;;
4726;SDS011;2377;51.734;8.950;2022-09-09T11:42:06;4.03;;;1.30;;
4726;SDS011;2377;51.734;8.950;2022-09-09T11:44:43;3.97;;;1.07;;
4726;SDS011;2377;51.734;8.950;2022-09-09T11:47:19;3.50;;;1.20;;
4726;SDS011;2377;51.734;8.950;2022-09-09T11:49:54;4.90;;;1.30;;
4726;SDS011;2377;51.734;8.950;2022-09-09T11:52:36;2.03;;;1.10;;
4726;SDS011;2377;51.734;8.950;2022-09-09T11:55:11;4.43;;;1.30;;
4726;SDS011;2377;51.734;8.950;2022-09-09T11:57:57;3.43;;;1.50;;
4726;SDS011;2377;51.734;8.950;2022-09-09T12:00:32;3.60;;;1.20;;
4726;SDS011;2377;51.734;8.950;2022-09-09T12:03:03;7.73;;;1.80;;
4726;SDS011;2377;51.734;8.950;2022-09-09T12:05:35;3.50;;;1.10;;
4726;SDS011;2377;51.734;8.950;2022-09-09T12:08:06;4.07;;;1.10;;
4726;SDS011;2377;51.734;8.950;2022-09-09T12:10:39;5.13;;;1.60;;
4726;SDS011;2377;51.734;8.950;2022-09-09T12:13:15;4.93;;;1.50;;
4726;SDS011;2377;51.734;8.950;2022-09-09T12:15:47;4.00;;;1.60;;
4726;SDS011;2377;51.734;8.950;2022-09-09T12:18:21;7.50;;;1.40;;
4726;SDS011;2377;51.734;8.950;2022-09-09T12:20:52;14.60;;;1.70;;
4726;SDS011;2377;51.734;8.950;2022-09-09T12:23:35;7.23;;;1.50;;
4726;SDS011;2377;51.734;8.950;2022-09-09T12:26:23;4.67;;;1.40;;
4726;SDS011;2377;51.734;8.950;2022-09-09T12:29:05;4.70;;;1.60;;
4726;SDS011;2377;51.734;8.950;2022-09-09T12:31:52;4.70;;;1.70;;
4726;SDS011;2377;51.734;8.950;2022-09-09T12:34:32;4.00;;;1.30;;
4726;SDS011;2377;51.734;8.950;2022-09-09T12:37:08;5.67;;;1.77;;
4726;SDS011;2377;51.734;8.950;2022-09-09T12:39:45;3.70;;;1.20;;
4726;SDS011;2377;51.734;8.950;2022-09-09T12:42:20;5.40;;;1.30;;
4726;SDS011;2377;51.734;8.950;2022-09-09T12:44:52;3.17;;;1.20;;
4726;SDS011;2377;51.734;8.950;2022-09-09T12:47:22;5.50;;;1.50;;
4726;SDS011;2377;51.734;8.950;2022-09-09T12:50:10;5.73;;;1.40;;
4726;SDS011;2377;51.734;8.950;2022-09-09T12:52:43;5.40;;;1.57;;
4726;SDS011;2377;51.734;8.950;2022-09-09T12:55:16;5.33;;;1.40;;
4726;SDS011;2377;51.734;8.950;2022-09-09T12:57:48;3.03;;;1.13;;
4726;SDS011;2377;51.734;8.950;2022-09-09T13:00:17;4.27;;;1.50;;
4726;SDS011;2377;51.734;8.950;2022-09-09T13:02:48;6.37;;;1.57;;
4726;SDS011;2377;51.734;8.950;2022-09-09T13:05:19;5.70;;;1.37;;
4726;SDS011;2377;51.734;8.950;2022-09-09T13:07:50;3.80;;;1.23;;
4726;SDS011;2377;51.734;8.950;2022-09-09T13:10:22;6.70;;;1.50;;
4726;SDS011;2377;51.734;8.950;2022-09-09T13:12:56;4.17;;;1.40;;
4726;SDS011;2377;51.734;8.950;2022-09-09T13:15:26;4.23;;;1.30;;
4726;SDS011;2377;51.734;8.950;2022-09-09T13:17:56;4.40;;;1.53;;
4726;SDS011;2377;51.734;8.950;2022-09-09T13:20:27;3.40;;;1.40;;
4726;SDS011;2377;51.734;8.950;2022-09-09T13:22:56;5.27;;;1.17;;
4726;SDS011;2377;51.734;8.950;2022-09-09T13:25:24;3.27;;;1.10;;
4726;SDS011;2377;51.734;8.950;2022-09-09T13:27:56;2.70;;;1.10;;
4726;SDS011;2377;51.734;8.950;2022-09-09T13:30:29;5.17;;;1.33;;
4726;SDS011;2377;51.734;8.950;2022-09-09T13:33:02;3.03;;;1.10;;
4726;SDS011;2377;51.734;8.950;2022-09-09T13:35:48;3.37;;;1.40;;
4726;SDS011;2377;51.734;8.950;2022-09-09T13:38:20;3.93;;;1.20;;
4726;SDS011;2377;51.734;8.950;2022-09-09T13:40:54;2.77;;;1.00;;
4726;SDS011;2377;51.734;8.950;2022-09-09T13:43:25;3.37;;;1.30;;
4726;SDS011;2377;51.734;8.950;2022-09-09T13:45:58;6.53;;;1.23;;
4726;SDS011;2377;51.734;8.950;2022-09-09T13:48:27;2.83;;;1.27;;
4726;SDS011;2377;51.734;8.950;2022-09-09T13:50:57;2.77;;;1.30;;
4726;SDS011;2377;51.734;8.950;2022-09-09T13:53:30;5.60;;;1.33;;
4726;SDS011;2377;51.734;8.950;2022-09-09T13:55:58;3.63;;;1.20;;
4726;SDS011;2377;51.734;8.950;2022-09-09T13:58:27;3.53;;;1.20;;
4726;SDS011;2377;51.734;8.950;2022-09-09T14:00:54;4.07;;;1.30;;
4726;SDS011;2377;51.734;8.950;2022-09-09T14:03:22;3.73;;;1.50;;
4726;SDS011;2377;51.734;8.950;2022-09-09T14:05:49;5.10;;;1.20;;
4726;SDS011;2377;51.734;8.950;2022-09-09T14:08:23;2.83;;;1.10;;
4726;SDS011;2377;51.734;8.950;2022-09-09T14:10:53;3.33;;;1.50;;
4726;SDS011;2377;51.734;8.950;2022-09-09T14:13:24;3.90;;;1.23;;
4726;SDS011;2377;51.734;8.950;2022-09-09T14:15:53;5.70;;;1.37;;
4726;SDS011;2377;51.734;8.950;2022-09-09T14:18:20;3.07;;;1.20;;
4726;SDS011;2377;51.734;8.950;2022-09-09T14:20:48;4.43;;;1.20;;
4726;SDS011;2377;51.734;8.950;2022-09-09T14:23:16;4.37;;;1.40;;
4726;SDS011;2377;51.734;8.950;2022-09-09T14:25:44;2.67;;;1.40;;
4726;SDS011;2377;51.734;8.950;2022-09-09T14:28:11;3.23;;;1.10;;
4726;SDS011;2377;51.734;8.950;2022-09-09T14:30:40;5.23;;;1.33;;
4726;SDS011;2377;51.734;8.950;2022-09-09T14:33:11;3.43;;;1.30;;
4726;SDS011;2377;51.734;8.950;2022-09-09T14:35:40;3.93;;;1.37;;
4726;SDS011;2377;51.734;8.950;2022-09-09T14:38:09;2.90;;;1.27;;
4726;SDS011;2377;51.734;8.950;2022-09-09T14:40:36;3.70;;;1.10;;
4726;SDS011;2377;51.734;8.950;2022-09-09T14:43:04;3.80;;;1.20;;
4726;SDS011;2377;51.734;8.950;2022-09-09T14:45:32;3.77;;;1.20;;
4726;SDS011;2377;51.734;8.950;2022-09-09T14:48:02;4.07;;;1.27;;
4726;SDS011;2377;51.734;8.950;2022-09-09T14:50:31;6.30;;;1.30;;
4726;SDS011;2377;51.734;8.950;2022-09-09T14:52:59;5.10;;;1.47;;
4726;SDS011;2377;51.734;8.950;2022-09-09T14:55:26;4.53;;;1.20;;
4726;SDS011;2377;51.734;8.950;2022-09-09T14:57:54;4.60;;;1.70;;
4726;SDS011;2377;51.734;8.950;2022-09-09T15:00:21;3.50;;;1.40;;
4726;SDS011;2377;51.734;8.950;2022-09-09T15:02:51;3.80;;;1.33;;
4726;SDS011;2377;51.734;8.950;2022-09-09T15:05:19;3.20;;;1.20;;
4726;SDS011;2377;51.734;8.950;2022-09-09T15:07:48;2.43;;;1.13;;
4726;SDS011;2377;51.734;8.950;2022-09-09T15:10:15;2.57;;;1.10;;
4726;SDS011;2377;51.734;8.950;2022-09-09T15:12:43;5.40;;;1.23;;
4726;SDS011;2377;51.734;8.950;2022-09-09T15:15:10;2.70;;;1.10;;
4726;SDS011;2377;51.734;8.950;2022-09-09T15:17:38;5.97;;;1.50;;
4726;SDS011;2377;51.734;8.950;2022-09-09T15:20:06;2.90;;;1.00;;
4726;SDS011;2377;51.734;8.950;2022-09-09T15:22:34;3.57;;;1.10;;
4726;SDS011;2377;51.734;8.950;2022-09-09T15:25:05;4.00;;;1.20;;
4726;SDS011;2377;51.734;8.950;2022-09-09T15:27:33;2.93;;;1.23;;
4726;SDS011;2377;51.734;8.950;2022-09-09T15:30:00;4.00;;;1.47;;
4726;SDS011;2377;51.734;8.950;2022-09-09T15:32:27;3.20;;;1.17;;
4726;SDS011;2377;51.734;8.950;2022-09-09T15:34:55;3.80;;;1.30;;
4726;SDS011;2377;51.734;8.950;2022-09-09T15:37:22;2.83;;;1.10;;
4726;SDS011;2377;51.734;8.950;2022-09-09T15:39:49;6.17;;;1.30;;
4726;SDS011;2377;51.734;8.950;2022-09-09T15:42:18;4.17;;;1.50;;
4726;SDS011;2377;51.734;8.950;2022-09-09T15:44:45;4.13;;;1.40;;
4726;SDS011;2377;51.734;8.950;2022-09-09T15:47:12;2.33;;;0.93;;
4726;SDS011;2377;51.734;8.950;2022-09-09T15:49:40;6.00;;;1.50;;
4726;SDS011;2377;51.734;8.950;2022-09-09T15:52:08;9.03;;;1.73;;
4726;SDS011;2377;51.734;8.950;2022-09-09T15:54:36;5.70;;;1.50;;
4726;SDS011;2377;51.734;8.950;2022-09-09T15:57:05;4.40;;;1.20;;
4726;SDS011;2377;51.734;8.950;2022-09-09T15:59:38;4.00;;;1.27;;
4726;SDS011;2377;51.734;8.950;2022-09-09T16:02:06;2.80;;;1.17;;